Time;durP1;ratioP1;P1;durP2;ratioP2;P2;SDS_P1;SDS_P2;PMS_P1;PMS_P2;Temp;Humidity;BMP_temperature;BMP_pressure;BME280_temperature;BME280_humidity;BME280_pressure;Samples;Min_cycle;Max_cycle;Signal;HPM_P1;HPM_P2
2022/12/23 00:01:26;;;;;;;;;;;;;;;7.27;78.35;100233.94;5083779;28;19920;-64
2022/12/23 00:03:55;;;;;;;;;;;;;;;7.26;78.29;100230.50;5082485;28;20366;-67
2022/12/23 00:06:20;;;;;;;;;;;;;;;7.27;78.31;100221.72;5080734;28;20009;-67
2022/12/23 00:08:45;;;;;;;;;;;;;;;7.27;78.38;100210.41;5078157;28;19970;-67
2022/12/23 00:11:12;;;;;;;;;;;;;;;7.28;78.29;100212.97;5082814;28;19927;-66
2022/12/23 00:16:21;;;;;;;;;;;;;;;7.30;78.35;100190.16;5081779;28;19947;-67
2022/12/23 00:18:47;;;;;;;;;;;;;;;7.30;78.28;100200.63;5085263;28;20369;-67
2022/12/23 00:21:14;;;;;;;;;;;;;;;7.31;78.26;100198.84;5068575;28;19931;-66
2022/12/23 00:23:40;;;;;;;;;;;;;;;7.31;78.02;100196.25;5081006;28;19954;-67
2022/12/23 00:26:06;;;;;;;;;;;;;;;7.27;78.13;100192.94;5081725;28;19924;-66
2022/12/23 00:28:32;;;;;;;;;;;;;;;7.26;78.17;100193.88;5080077;28;20393;-67
2022/12/23 00:31:02;;;;;;;;;;;;;;;7.25;78.30;100186.94;5081094;28;20017;-66
2022/12/23 00:33:29;;;;;;;;;;;;;;;7.25;78.16;100191.34;5082660;28;19927;-65
2022/12/23 00:35:55;;;;;;;;;;;;;;;7.23;78.27;100191.41;5075807;28;19924;-67
2022/12/23 00:42:52;;;;;;;;;;;;;;;7.24;78.15;100198.34;5077539;28;19916;-64
2022/12/23 00:43:53;;;;;;;;;;;;;;;7.22;78.25;100183.66;5086371;28;19939;-66
2022/12/23 00:46:18;;;;;;;;;;;;;;;7.20;78.12;100172.41;5087836;28;19928;-65
2022/12/23 00:51:27;;;;;;;;;;;;;;;7.19;78.14;100168.94;5082866;28;20428;-67
2022/12/23 00:53:52;;;;;;;;;;;;;;;7.18;78.08;100172.50;5083231;28;19919;-67
2022/12/23 00:56:18;;;;;;;;;;;;;;;7.16;78.10;100166.50;5083392;28;20298;-65
2022/12/23 00:58:43;;;;;;;;;;;;;;;7.13;78.11;100156.19;5079290;28;19920;-63
2022/12/23 01:06:36;;;;;;;;;;;;;;;7.04;78.36;100161.88;5078311;28;19931;-65
2022/12/23 01:09:01;;;;;;;;;;;;;;;7.01;78.72;100163.78;5081070;28;19929;-61
2022/12/23 01:11:27;;;;;;;;;;;;;;;7.02;78.67;100161.97;5068478;28;19931;-64
2022/12/23 01:13:52;;;;;;;;;;;;;;;7.01;78.86;100162.91;5088878;28;19927;-64
2022/12/23 01:16:17;;;;;;;;;;;;;;;7.05;78.57;100160.97;5089719;28;20375;-62
2022/12/23 01:18:43;;;;;;;;;;;;;;;7.06;79.00;100155.66;5083108;28;20443;-63
2022/12/23 01:21:09;;;;;;;;;;;;;;;7.08;78.62;100160.81;5076362;28;19931;-63
2022/12/23 01:23:35;;;;;;;;;;;;;;;7.07;78.70;100153.88;5085155;28;20493;-64
2022/12/23 01:26:02;;;;;;;;;;;;;;;7.08;78.74;100150.34;5080840;28;20524;-61
2022/12/23 01:28:28;;;;;;;;;;;;;;;7.07;78.74;100148.66;5067011;28;20367;-63
2022/12/23 01:30:53;;;;;;;;;;;;;;;7.08;78.52;100150.34;5074242;28;20013;-64
2022/12/23 01:33:19;;;;;;;;;;;;;;;7.07;78.69;100146.91;5065664;28;20381;-61
2022/12/23 01:35:44;;;;;;;;;;;;;;;7.06;78.58;100139.97;5072338;28;19920;-63
2022/12/23 01:38:10;;;;;;;;;;;;;;;7.05;78.66;100127.81;5080946;28;20382;-63
2022/12/23 01:40:36;;;;;;;;;;;;;;;7.00;78.49;100135.06;5075653;28;20053;-63
2022/12/23 01:43:01;;;;;;;;;;;;;;;6.95;78.34;100127.47;5078886;28;20019;-66
2022/12/23 01:45:27;;;;;;;;;;;;;;;6.96;78.87;100134.38;5077636;28;20058;-66
2022/12/23 01:47:57;;;;;;;;;;;;;;;6.96;78.59;100134.38;5087690;28;19968;-67
2022/12/23 01:50:45;;;;;;;;;;;;;;;6.95;78.79;100137.91;5077828;28;20003;-67
2022/12/23 01:53:13;;;;;;;;;;;;;;;6.92;78.81;100138.06;5085368;28;20375;-66
2022/12/23 01:55:47;;;;;;;;;;;;;;;6.95;78.65;100127.47;5086511;28;19920;-66
2022/12/23 01:58:15;;;;;;;;;;;;;;;6.96;78.59;100136.13;5084218;28;20394;-66
2022/12/23 02:03:43;;;;;;;;;;;;;;;6.97;78.87;100136.06;5081085;28;20291;-67
2022/12/23 02:09:18;;;;;;;;;;;;;;;7.00;78.64;100135.91;5044173;28;19927;-66
2022/12/23 02:11:46;;;;;;;;;;;;;;;7.01;78.65;100127.16;5073973;28;19920;-66
2022/12/23 02:17:40;;;;;;;;;;;;;;;7.00;78.43;100119.38;5073672;28;19966;-66
2022/12/23 02:20:24;;;;;;;;;;;;;;;7.04;78.36;100114.81;5073433;28;19948;-67
2022/12/23 02:23:07;;;;;;;;;;;;;;;7.03;78.17;100108.75;5079525;28;19956;-67
2022/12/23 02:25:55;;;;;;;;;;;;;;;6.99;78.00;100105.44;5078375;28;19915;-66
2022/12/23 02:28:24;;;;;;;;;;;;;;;6.96;77.93;100105.59;5077457;28;19981;-66
2022/12/23 02:30:54;;;;;;;;;;;;;;;6.94;77.90;100104.00;5077344;28;19931;-66
2022/12/23 02:33:28;;;;;;;;;;;;;;;6.89;78.05;100101.59;5076476;28;19956;-67
2022/12/23 02:35:53;;;;;;;;;;;;;;;6.88;78.14;100113.03;5078739;28;19935;-66
2022/12/23 02:38:18;;;;;;;;;;;;;;;6.88;77.87;100115.63;5076905;28;19985;-66
2022/12/23 02:41:01;;;;;;;;;;;;;;;6.88;78.16;100107.78;5079356;28;19991;-65
2022/12/23 02:43:52;;;;;;;;;;;;;;;6.85;77.96;100103.56;5070897;28;19923;-66
2022/12/23 02:46:24;;;;;;;;;;;;;;;6.86;77.76;100104.41;5073314;28;20473;-66
2022/12/23 02:48:55;;;;;;;;;;;;;;;6.82;77.91;100106.31;5075019;28;19966;-66
2022/12/23 02:51:25;;;;;;;;;;;;;;;6.82;77.93;100093.25;5078072;28;19920;-67
2022/12/23 02:53:53;;;;;;;;;;;;;;;6.84;77.94;100108.88;5078458;28;19917;-66
2022/12/23 02:56:19;;;;;;;;;;;;;;;6.85;77.90;100098.31;5072893;28;20015;-66
2022/12/23 02:59:03;;;;;;;;;;;;;;;6.86;78.15;100101.78;5075297;28;19952;-66
2022/12/23 03:01:30;;;;;;;;;;;;;;;6.88;78.12;100104.31;5079765;28;19935;-67
2022/12/23 03:03:55;;;;;;;;;;;;;;;6.91;77.99;100099.75;5071271;28;19960;-66
2022/12/23 03:06:24;;;;;;;;;;;;;;;6.90;77.66;100095.44;5077996;28;19920;-67
2022/12/23 03:08:51;;;;;;;;;;;;;;;6.93;77.81;100092.69;5075465;28;20329;-66
2022/12/23 03:11:17;;;;;;;;;;;;;;;6.93;77.70;100097.91;5089039;28;19921;-67
2022/12/23 03:13:50;;;;;;;;;;;;;;;6.93;77.80;100095.31;5084222;28;19931;-66
2022/12/23 03:16:18;;;;;;;;;;;;;;;6.93;77.68;100097.09;5071389;28;19933;-66
2022/12/23 03:19:02;;;;;;;;;;;;;;;6.93;77.73;100097.91;5078193;28;19916;-66
2022/12/23 03:21:33;;;;;;;;;;;;;;;6.93;77.85;100099.69;5075788;28;19958;-64
2022/12/23 03:24:11;;;;;;;;;;;;;;;6.90;77.84;100095.44;5076915;28;19935;-63
2022/12/23 03:26:36;;;;;;;;;;;;;;;6.92;77.86;100090.16;5078813;28;19912;-65
2022/12/23 03:29:11;;;;;;;;;;;;;;;6.91;77.72;100086.69;5076434;28;19916;-63
2022/12/23 03:31:37;;;;;;;;;;;;;;;6.85;77.91;100082.63;5075989;28;19920;-65
2022/12/23 03:34:09;;;;;;;;;;;;;;;6.86;77.99;100086.09;5073033;28;19947;-64
2022/12/23 03:36:39;;;;;;;;;;;;;;;6.84;77.81;100082.72;5077745;28;20307;-64
2022/12/23 03:39:06;;;;;;;;;;;;;;;6.81;77.96;100081.09;5074974;28;20011;-62
2022/12/23 03:41:37;;;;;;;;;;;;;;;6.79;78.10;100077.75;5066813;28;19912;-64
2022/12/23 03:44:09;;;;;;;;;;;;;;;6.75;78.33;100072.72;5079655;28;20003;-63
2022/12/23 03:46:40;;;;;;;;;;;;;;;6.75;78.40;100073.59;5057527;28;19955;-64
2022/12/23 03:49:07;;;;;;;;;;;;;;;6.74;78.26;100074.50;5046814;28;19955;-62
2022/12/23 03:51:39;;;;;;;;;;;;;;;6.73;78.36;100080.66;5071445;28;19916;-66
2022/12/23 03:54:09;;;;;;;;;;;;;;;6.73;78.33;100079.84;5073725;28;20295;-65
2022/12/23 03:56:36;;;;;;;;;;;;;;;6.77;78.66;100083.94;5076832;28;20307;-66
2022/12/23 03:59:07;;;;;;;;;;;;;;;6.77;78.33;100076.97;5080748;28;19929;-66
2022/12/23 04:01:41;;;;;;;;;;;;;;;6.83;78.29;100081.03;5075388;28;19916;-66
2022/12/23 04:04:15;;;;;;;;;;;;;;;6.84;78.23;100074.88;5082200;28;19916;-66
2022/12/23 04:06:48;;;;;;;;;;;;;;;6.85;78.31;100079.19;5080062;28;19974;-64
2022/12/23 04:09:14;;;;;;;;;;;;;;;6.85;78.37;100079.19;5077826;28;19915;-65
2022/12/23 04:11:40;;;;;;;;;;;;;;;6.83;78.58;100079.25;5077227;28;19921;-67
2022/12/23 04:14:06;;;;;;;;;;;;;;;6.83;78.57;100075.81;5064303;28;19921;-67
2022/12/23 04:16:31;;;;;;;;;;;;;;;6.82;78.50;100077.56;5084363;28;19987;-65
2022/12/23 04:18:57;;;;;;;;;;;;;;;6.83;78.57;100081.84;5083223;28;19912;-66
2022/12/23 04:21:22;;;;;;;;;;;;;;;6.84;78.40;100082.72;5083916;28;19924;-66
2022/12/23 04:23:47;;;;;;;;;;;;;;;6.84;78.68;100082.72;5079762;28;19924;-66
2022/12/23 04:26:13;;;;;;;;;;;;;;;6.86;78.72;100080.88;5073375;28;19928;-65
2022/12/23 04:28:38;;;;;;;;;;;;;;;6.87;78.55;100077.34;5080459;28;19974;-67
2022/12/23 04:31:03;;;;;;;;;;;;;;;6.90;78.58;100077.16;5078404;28;19928;-66
2022/12/23 04:33:29;;;;;;;;;;;;;;;6.90;78.59;100079.75;5078824;28;19948;-65
2022/12/23 04:35:54;;;;;;;;;;;;;;;6.90;78.27;100077.16;5082616;28;19975;-67
2022/12/23 04:38:20;;;;;;;;;;;;;;;6.91;78.48;100083.25;5079491;28;19920;-66
2022/12/23 04:40:45;;;;;;;;;;;;;;;6.90;78.41;100082.38;5083243;28;20383;-64
2022/12/23 04:43:11;;;;;;;;;;;;;;;6.90;78.65;100073.69;5084019;28;19930;-66
2022/12/23 04:45:36;;;;;;;;;;;;;;;6.91;78.41;100072.78;5077970;28;20007;-66
2022/12/23 04:48:02;;;;;;;;;;;;;;;6.89;78.76;100064.16;5081672;28;19920;-67
2022/12/23 04:50:27;;;;;;;;;;;;;;;6.91;78.67;100063.16;5077937;28;19919;-66
2022/12/23 04:52:55;;;;;;;;;;;;;;;6.94;78.92;100067.38;5080748;28;19919;-65
2022/12/23 04:55:21;;;;;;;;;;;;;;;6.96;78.67;100068.13;5076563;28;20042;-66
2022/12/23 04:57:46;;;;;;;;;;;;;;;6.93;78.46;100060.47;5078157;28;24743;-67
2022/12/23 05:00:11;;;;;;;;;;;;;;;6.90;78.81;100065.84;5075078;28;20399;-64
2022/12/23 05:02:37;;;;;;;;;;;;;;;6.86;78.69;100063.41;5080242;28;19916;-64
2022/12/23 05:05:03;;;;;;;;;;;;;;;6.84;78.99;100069.66;5073254;28;20362;-64
2022/12/23 05:07:28;;;;;;;;;;;;;;;6.82;78.70;100059.25;5078914;28;20002;-64
2022/12/23 05:09:53;;;;;;;;;;;;;;;6.85;79.12;100066.94;5067744;28;19920;-61
2022/12/23 05:12:18;;;;;;;;;;;;;;;6.84;79.14;100067.84;5080219;28;19932;-63
2022/12/23 05:14:44;;;;;;;;;;;;;;;6.85;79.01;100063.50;5081273;28;20390;-64
2022/12/23 05:17:09;;;;;;;;;;;;;;;6.82;79.20;100068.88;5077491;28;19943;-61
2022/12/23 05:19:34;;;;;;;;;;;;;;;6.78;79.02;100062.09;5063875;28;20295;-64
2022/12/23 05:22:00;;;;;;;;;;;;;;;6.75;78.93;100057.91;5084189;28;20015;-63
2022/12/23 05:24:25;;;;;;;;;;;;;;;6.77;79.21;100050.81;5080860;28;19973;-63
2022/12/23 05:26:50;;;;;;;;;;;;;;;6.74;79.09;100055.34;5079543;28;20294;-63
2022/12/23 05:29:16;;;;;;;;;;;;;;;6.75;79.17;100059.66;5076084;28;20345;-61
2022/12/23 05:31:41;;;;;;;;;;;;;;;6.73;79.11;100057.13;5078847;28;20271;-62
2022/12/23 05:34:06;;;;;;;;;;;;;;;6.71;79.08;100065.06;5079790;28;19971;-61
2022/12/23 05:36:32;;;;;;;;;;;;;;;6.71;78.90;100051.13;5082015;28;20601;-62
2022/12/23 05:38:57;;;;;;;;;;;;;;;6.67;78.98;100060.06;5082160;28;20383;-63
2022/12/23 05:41:22;;;;;;;;;;;;;;;6.66;79.07;100058.38;5085335;28;19912;-64
2022/12/23 05:43:48;;;;;;;;;;;;;;;6.65;78.86;100065.38;5085850;28;20013;-62
2022/12/23 05:46:13;;;;;;;;;;;;;;;6.63;78.91;100061.16;5081388;28;20294;-65
2022/12/23 05:48:38;;;;;;;;;;;;;;;6.60;78.96;100049.06;5082535;28;20302;-62
2022/12/23 05:51:04;;;;;;;;;;;;;;;6.58;79.14;100058.75;5081103;28;19923;-62
2022/12/23 05:53:29;;;;;;;;;;;;;;;6.58;78.92;100050.09;5079058;28;20320;-63
2022/12/23 05:55:54;;;;;;;;;;;;;;;6.56;78.72;100056.25;5076814;28;19935;-66
2022/12/23 05:58:20;;;;;;;;;;;;;;;6.54;79.01;100055.47;5076694;28;19982;-66
2022/12/23 06:00:45;;;;;;;;;;;;;;;6.54;79.03;100052.03;5074032;28;19923;-66
2022/12/23 06:03:10;;;;;;;;;;;;;;;6.50;78.85;100048.75;5077102;28;19986;-66
2022/12/23 06:05:37;;;;;;;;;;;;;;;6.51;79.08;100065.25;5076689;28;19964;-64
2022/12/23 06:08:03;;;;;;;;;;;;;;;6.51;79.15;100066.09;5077254;28;19919;-66
2022/12/23 06:10:28;;;;;;;;;;;;;;;6.48;78.83;100062.78;5081638;28;19922;-65
2022/12/23 06:12:54;;;;;;;;;;;;;;;6.47;79.23;100068.94;5077867;28;19924;-64
2022/12/23 06:15:19;;;;;;;;;;;;;;;6.47;79.31;100067.19;5077916;28;20090;-66
2022/12/23 06:17:44;;;;;;;;;;;;;;;6.49;79.26;100073.19;5076689;28;19924;-66
2022/12/23 06:20:10;;;;;;;;;;;;;;;6.50;79.32;100074.00;5080604;28;19938;-65
2022/12/23 06:22:35;;;;;;;;;;;;;;;6.50;79.36;100069.66;5081108;28;19916;-67
2022/12/23 06:25:00;;;;;;;;;;;;;;;6.50;79.38;100063.56;5078246;28;19916;-65
2022/12/23 06:27:26;;;;;;;;;;;;;;;6.52;79.30;100066.94;5084184;28;19927;-66
2022/12/23 06:29:51;;;;;;;;;;;;;;;6.53;79.49;100068.63;5080453;28;20416;-67
2022/12/23 06:32:16;;;;;;;;;;;;;;;6.51;79.27;100067.88;5067590;28;19954;-64
2022/12/23 06:34:42;;;;;;;;;;;;;;;6.49;79.37;100073.19;5072069;28;19935;-66
2022/12/23 06:37:07;;;;;;;;;;;;;;;6.47;79.57;100064.56;5070281;28;19924;-66
2022/12/23 06:39:32;;;;;;;;;;;;;;;6.47;79.33;100067.19;5067836;28;19982;-66
2022/12/23 06:41:57;;;;;;;;;;;;;;;6.44;79.59;100071.69;5074822;28;19973;-65
2022/12/23 06:44:23;;;;;;;;;;;;;;;6.44;79.76;100076.94;5070020;28;19932;-66
2022/12/23 06:46:48;;;;;;;;;;;;;;;6.47;79.67;100084.63;5071262;28;19935;-66
2022/12/23 06:49:13;;;;;;;;;;;;;;;6.51;79.57;100078.31;5052875;28;19947;-65
2022/12/23 06:51:39;;;;;;;;;;;;;;;6.52;79.53;100090.47;5073291;28;19928;-66
2022/12/23 06:54:04;;;;;;;;;;;;;;;6.53;79.49;100089.53;5075138;28;19916;-66
2022/12/23 06:56:31;;;;;;;;;;;;;;;6.55;79.56;100098.16;5077239;28;19929;-65
2022/12/23 06:58:56;;;;;;;;;;;;;;;6.55;79.40;100095.53;5077548;28;19916;-64
2022/12/23 07:01:22;;;;;;;;;;;;;;;6.55;79.47;100103.38;5079739;28;19921;-61
2022/12/23 07:03:48;;;;;;;;;;;;;;;6.56;79.68;100099.84;5076447;28;19916;-62
2022/12/23 07:06:14;;;;;;;;;;;;;;;6.58;79.63;100103.19;5077626;28;19943;-65
2022/12/23 07:08:39;;;;;;;;;;;;;;;6.57;79.47;100096.31;5073046;28;20375;-63
2022/12/23 07:11:04;;;;;;;;;;;;;;;6.59;79.54;100109.28;5067684;28;20002;-67
2022/12/23 07:13:31;;;;;;;;;;;;;;;6.59;79.65;100104.06;5070023;28;20940;-66
2022/12/23 07:15:56;;;;;;;;;;;;;;;6.58;79.64;100103.19;5070455;28;19960;-64
2022/12/23 07:18:22;;;;;;;;;;;;;;;6.58;79.44;100103.19;5062470;28;19966;-66
2022/12/23 07:20:48;;;;;;;;;;;;;;;6.59;79.57;100101.44;5074897;28;20121;-66
2022/12/23 07:23:13;;;;;;;;;;;;;;;6.60;79.39;100106.59;5066922;28;19922;-66
2022/12/23 07:25:38;;;;;;;;;;;;;;;6.64;79.68;100107.31;5072234;28;19930;-66
2022/12/23 07:28:04;;;;;;;;;;;;;;;6.66;79.59;100101.06;5079469;28;19920;-66
2022/12/23 07:30:29;;;;;;;;;;;;;;;6.66;79.52;100105.41;5069761;28;19925;-65
2022/12/23 07:32:54;;;;;;;;;;;;;;;6.67;79.20;100102.75;5074410;28;19971;-66
2022/12/23 07:35:20;;;;;;;;;;;;;;;6.66;79.23;100106.28;5073557;28;19925;-66
2022/12/23 07:37:49;;;;;;;;;;;;;;;6.67;79.20;100109.72;5064003;28;19920;-66
2022/12/23 07:40:15;;;;;;;;;;;;;;;6.66;79.53;100108.91;5077926;28;20631;-64
2022/12/23 07:42:40;;;;;;;;;;;;;;;6.64;79.25;100102.91;5089821;28;20433;-65
2022/12/23 07:45:05;;;;;;;;;;;;;;;6.65;79.41;100107.22;5079596;28;19928;-65
2022/12/23 07:47:31;;;;;;;;;;;;;;;6.67;79.70;100113.22;5048054;28;20565;-64
2022/12/23 07:49:56;;;;;;;;;;;;;;;6.70;79.23;100118.28;5071195;28;19939;-67
2022/12/23 07:52:21;;;;;;;;;;;;;;;6.72;79.37;100126.03;5079067;28;20322;-64
2022/12/23 07:54:47;;;;;;;;;;;;;;;6.73;79.32;100119.88;5083891;28;19939;-62
2022/12/23 07:57:12;;;;;;;;;;;;;;;6.74;79.49;100118.09;5085039;28;20353;-62
2022/12/23 07:59:37;;;;;;;;;;;;;;;6.75;79.36;100115.41;5090128;28;19947;-64
2022/12/23 08:02:03;;;;;;;;;;;;;;;6.76;79.10;100111.03;5074888;28;19927;-63
2022/12/23 08:04:28;;;;;;;;;;;;;;;6.75;79.41;100104.09;5070543;28;19920;-64
2022/12/23 08:06:53;;;;;;;;;;;;;;;6.72;79.07;100099.88;5084428;28;20336;-63
2022/12/23 08:09:18;;;;;;;;;;;;;;;6.71;79.14;100093.81;5079726;28;19984;-61
2022/12/23 08:11:44;;;;;;;;;;;;;;;6.70;79.24;100097.38;5077226;28;20379;-62
2022/12/23 08:14:10;;;;;;;;;;;;;;;6.71;79.27;100103.44;5079250;28;19924;-64
2022/12/23 08:16:35;;;;;;;;;;;;;;;6.68;79.11;100096.59;5085754;28;20407;-66
2022/12/23 08:19:00;;;;;;;;;;;;;;;6.67;79.05;100094.03;5088101;28;19916;-67
2022/12/23 08:21:26;;;;;;;;;;;;;;;6.66;79.16;100105.41;5088421;28;19920;-66
2022/12/23 08:23:51;;;;;;;;;;;;;;;6.65;79.65;100109.81;5093356;28;19915;-63
2022/12/23 08:26:18;;;;;;;;;;;;;;;6.67;79.89;100109.72;5081369;28;19944;-64
2022/12/23 08:28:44;;;;;;;;;;;;;;;6.72;79.59;100107.72;5086600;28;19927;-63
2022/12/23 08:31:17;;;;;;;;;;;;;;;6.75;79.68;100114.56;5078006;28;19916;-64
2022/12/23 08:33:43;;;;;;;;;;;;;;;6.78;79.71;100115.28;5086407;28;19923;-64
2022/12/23 08:36:11;;;;;;;;;;;;;;;6.84;79.63;100121.94;5087117;28;20398;-64
2022/12/23 08:38:36;;;;;;;;;;;;;;;6.89;79.76;100122.53;5079206;28;19974;-66
2022/12/23 08:41:01;;;;;;;;;;;;;;;6.94;79.53;100128.38;5069858;28;19928;-67
2022/12/23 08:43:27;;;;;;;;;;;;;;;6.99;79.78;100131.59;5087453;28;19920;-64
2022/12/23 08:45:52;;;;;;;;;;;;;;;7.06;79.59;100139.13;5081511;28;19920;-66
2022/12/23 08:48:18;;;;;;;;;;;;;;;7.08;79.74;100143.38;5079992;28;19916;-63
2022/12/23 08:50:44;;;;;;;;;;;;;;;7.12;79.46;100150.09;5076515;28;19913;-65
2022/12/23 08:53:10;;;;;;;;;;;;;;;7.13;79.70;100161.44;5090516;28;20499;-64
2022/12/23 08:55:39;;;;;;;;;;;;;;;7.20;79.34;100157.53;5064298;28;19928;-65
2022/12/23 08:58:05;;;;;;;;;;;;;;;7.23;78.98;100160.00;5075581;28;19920;-63
2022/12/23 09:00:30;;;;;;;;;;;;;;;7.23;78.91;100160.00;5081161;28;19989;-65
2022/12/23 09:02:55;;;;;;;;;;;;;;;7.28;79.02;100168.47;5081386;28;19959;-65
2022/12/23 09:05:20;;;;;;;;;;;;;;;7.36;79.01;100172.44;5059035;28;20066;-66
2022/12/23 09:07:46;;;;;;;;;;;;;;;7.39;78.85;100175.75;5087577;28;19920;-66
2022/12/23 09:10:11;;;;;;;;;;;;;;;7.42;78.65;100177.34;5085137;28;20383;-66
2022/12/23 09:12:36;;;;;;;;;;;;;;;7.40;78.59;100174.81;5082919;28;19942;-64
2022/12/23 09:15:02;;;;;;;;;;;;;;;7.39;78.76;100177.50;5083282;28;19917;-66
2022/12/23 09:17:27;;;;;;;;;;;;;;;7.39;79.09;100177.50;5084391;28;19912;-63
2022/12/23 09:19:52;;;;;;;;;;;;;;;7.38;79.16;100181.06;5089727;28;19920;-64
2022/12/23 09:22:18;;;;;;;;;;;;;;;7.39;79.12;100190.59;5079952;28;20337;-64
2022/12/23 09:24:43;;;;;;;;;;;;;;;7.39;79.12;100195.84;5089216;28;19916;-64
2022/12/23 09:27:08;;;;;;;;;;;;;;;7.41;79.34;100191.38;5080784;28;20390;-65
2022/12/23 09:29:34;;;;;;;;;;;;;;;7.41;78.95;100194.81;5083469;28;19912;-64
2022/12/23 09:31:59;;;;;;;;;;;;;;;7.41;79.16;100197.44;5078718;28;19935;-64
2022/12/23 09:34:25;;;;;;;;;;;;;;;7.42;79.20;100203.53;5082681;28;19960;-64
2022/12/23 09:36:51;;;;;;;;;;;;;;;7.45;79.33;100192.91;5079403;28;22184;-66
2022/12/23 09:39:16;;;;;;;;;;;;;;;7.44;79.26;100196.44;5071519;28;19929;-65
2022/12/23 09:41:45;;;;;;;;;;;;;;;7.42;79.15;100196.50;5075405;28;20422;-63
2022/12/23 09:44:31;;;;;;;;;;;;;;;7.42;79.27;100190.44;5084958;28;20009;-62
2022/12/23 09:46:59;;;;;;;;;;;;;;;7.41;79.14;100175.66;5077445;28;19971;-62
2022/12/23 09:49:28;;;;;;;;;;;;;;;7.43;79.29;100176.44;5061206;28;20018;-68
2022/12/23 09:51:59;;;;;;;;;;;;;;;7.45;79.15;100187.66;5081384;28;19931;-68
2022/12/23 09:54:24;;;;;;;;;;;;;;;7.48;79.24;100195.34;5077532;28;19920;-64
2022/12/23 09:57:17;;;;;;;;;;;;;;;7.50;79.36;100198.72;5073689;28;19928;-61
2022/12/23 10:00:02;;;;;;;;;;;;;;;7.52;79.16;100209.94;5083233;28;19916;-64
2022/12/23 10:02:34;;;;;;;;;;;;;;;7.55;79.26;100220.25;5078987;28;19955;-65
2022/12/23 10:05:01;;;;;;;;;;;;;;;7.58;79.07;100227.09;5074548;28;19970;-63
2022/12/23 10:07:36;;;;;;;;;;;;;;;7.62;79.02;100232.13;5079054;28;20296;-65
2022/12/23 10:10:25;;;;;;;;;;;;;;;7.62;78.67;100234.75;5076424;28;19920;-65
2022/12/23 10:12:51;;;;;;;;;;;;;;;7.59;78.80;100232.28;5071517;28;19951;-64
2022/12/23 10:15:19;;;;;;;;;;;;;;;7.62;78.72;100226.88;5085807;28;19923;-67
2022/12/23 10:17:45;;;;;;;;;;;;;;;7.65;78.83;100219.75;5087431;28;19912;-67
2022/12/23 10:20:20;;;;;;;;;;;;;;;7.66;79.01;100214.47;5080469;28;20450;-64
2022/12/23 10:22:48;;;;;;;;;;;;;;;7.71;78.89;100225.53;5076920;28;19917;-65
2022/12/23 10:25:15;;;;;;;;;;;;;;;7.76;78.88;100226.13;5083028;28;19924;-64
2022/12/23 10:27:42;;;;;;;;;;;;;;;7.81;78.80;100227.66;5089895;28;19912;-63
2022/12/23 10:30:18;;;;;;;;;;;;;;;7.82;78.63;100222.31;5086975;28;19994;-62
2022/12/23 10:32:50;;;;;;;;;;;;;;;7.80;79.03;100220.72;5086787;28;19924;-60
2022/12/23 10:35:37;;;;;;;;;;;;;;;7.85;78.98;100226.56;5065072;28;20566;-61
2022/12/23 10:38:14;;;;;;;;;;;;;;;7.85;78.72;100221.31;5084979;28;20410;-68
2022/12/23 10:40:54;;;;;;;;;;;;;;;7.84;78.82;100227.50;5079758;28;19926;-64
2022/12/23 10:43:38;;;;;;;;;;;;;;;7.84;78.79;100223.09;5080146;28;19999;-63
2022/12/23 10:46:41;;;;;;;;;;;;;;;7.86;79.06;100221.22;5083592;28;19923;-66
2022/12/23 10:49:13;;;;;;;;;;;;;;;7.90;78.92;100219.28;5040883;28;20395;-65
2022/12/23 10:51:47;;;;;;;;;;;;;;;7.92;79.08;100223.53;5038579;28;19944;-65
2022/12/23 10:54:15;;;;;;;;;;;;;;;7.99;78.96;100223.16;5070043;28;19916;-65
2022/12/23 10:56:41;;;;;;;;;;;;;;;8.02;78.75;100221.22;5085240;28;20580;-64
2022/12/23 10:59:19;;;;;;;;;;;;;;;8.04;78.64;100231.63;5062134;28;19920;-61
2022/12/23 11:01:46;;;;;;;;;;;;;;;8.08;78.60;100215.66;5081235;28;20007;-65
2022/12/23 11:04:16;;;;;;;;;;;;;;;8.19;78.71;100220.28;5083938;28;20015;-61
2022/12/23 11:06:43;;;;;;;;;;;;;;;8.23;78.41;100227.06;5084846;28;20371;-64
2022/12/23 11:09:13;;;;;;;;;;;;;;;8.29;78.38;100227.63;5082325;28;19993;-64
2022/12/23 11:11:59;;;;;;;;;;;;;;;8.32;78.29;100222.22;5071365;28;19923;-64
2022/12/23 11:14:47;;;;;;;;;;;;;;;8.37;78.25;100222.81;5069772;28;20268;-64
2022/12/23 11:17:20;;;;;;;;;;;;;;;8.42;78.11;100227.78;5072721;28;19928;-64
2022/12/23 11:19:46;;;;;;;;;;;;;;;8.45;77.97;100228.44;5081564;28;19931;-64
2022/12/23 11:22:22;;;;;;;;;;;;;;;8.48;77.92;100230.94;5080533;28;19916;-65
2022/12/23 11:24:47;;;;;;;;;;;;;;;8.47;78.07;100234.44;5077980;28;19916;-64
2022/12/23 11:27:14;;;;;;;;;;;;;;;8.47;78.11;100238.88;5065287;28;19934;-63
2022/12/23 11:29:44;;;;;;;;;;;;;;;8.45;78.03;100225.00;5063459;28;19921;-65
2022/12/23 11:32:20;;;;;;;;;;;;;;;8.45;78.14;100225.81;5078114;28;20891;-68
2022/12/23 11:34:46;;;;;;;;;;;;;;;8.48;78.20;100227.44;5077334;28;19916;-64
2022/12/23 11:37:30;;;;;;;;;;;;;;;8.51;78.17;100230.75;5076022;28;19928;-64
2022/12/23 11:39:56;;;;;;;;;;;;;;;8.57;77.95;100226.09;5082426;28;19925;-63
2022/12/23 11:42:26;;;;;;;;;;;;;;;8.61;78.15;100223.22;5074614;28;19928;-66
2022/12/23 11:44:53;;;;;;;;;;;;;;;8.64;77.85;100219.56;5083415;28;19927;-66
2022/12/23 11:47:21;;;;;;;;;;;;;;;8.61;78.09;100220.59;5084899;28;20008;-64
2022/12/23 11:49:52;;;;;;;;;;;;;;;8.66;78.13;100228.19;5076085;28;19924;-65
2022/12/23 11:52:44;;;;;;;;;;;;;;;8.70;77.93;100234.94;5068565;28;19916;-64
2022/12/23 11:55:21;;;;;;;;;;;;;;;8.74;77.89;100235.63;5067276;28;19970;-65
2022/12/23 11:57:48;;;;;;;;;;;;;;;8.74;78.08;100218.09;5070784;28;19969;-72
2022/12/23 12:00:20;;;;;;;;;;;;;;;8.75;78.14;100222.41;5077509;28;19942;-64
2022/12/23 12:02:47;;;;;;;;;;;;;;;8.79;78.16;100234.41;5085270;28;19920;-67
2022/12/23 12:05:12;;;;;;;;;;;;;;;8.86;78.15;100232.28;5071113;28;22150;-66
2022/12/23 12:07:40;;;;;;;;;;;;;;;8.84;77.87;100237.63;5063238;28;19916;-67
2022/12/23 12:10:09;;;;;;;;;;;;;;;8.75;78.07;100240.75;5059643;28;19930;-64
2022/12/23 12:12:34;;;;;;;;;;;;;;;8.75;77.80;100234.69;5079775;28;20493;-67
2022/12/23 12:15:00;;;;;;;;;;;;;;;8.70;77.88;100240.16;5072994;28;20015;-65
2022/12/23 12:17:34;;;;;;;;;;;;;;;8.53;78.45;100234.16;5066014;28;19931;-67
2022/12/23 12:20:09;;;;;;;;;;;;;;;8.49;78.40;100242.25;5082721;28;20383;-66
2022/12/23 12:22:41;;;;;;;;;;;;;;;8.57;78.52;100234.81;5075925;28;19920;-67
2022/12/23 12:25:14;;;;;;;;;;;;;;;8.52;78.54;100242.94;5083333;28;19916;-67
2022/12/23 12:27:42;;;;;;;;;;;;;;;8.51;78.83;100243.88;5068298;28;19924;-67
2022/12/23 12:30:12;;;;;;;;;;;;;;;8.62;78.36;100242.41;5083537;28;19924;-67
2022/12/23 12:32:44;;;;;;;;;;;;;;;8.52;78.59;100240.31;5079903;28;19924;-67
2022/12/23 12:35:20;;;;;;;;;;;;;;;8.52;78.73;100242.94;5073922;28;19916;-67
2022/12/23 12:37:52;;;;;;;;;;;;;;;8.65;78.39;100247.47;5087452;28;19917;-68
2022/12/23 12:40:31;;;;;;;;;;;;;;;8.67;78.10;100253.50;5095152;28;19931;-66
2022/12/23 12:43:15;;;;;;;;;;;;;;;8.71;78.44;100251.53;5085635;28;19911;-66
2022/12/23 12:45:44;;;;;;;;;;;;;;;8.76;78.01;100252.94;5071015;28;19920;-66
2022/12/23 12:48:09;;;;;;;;;;;;;;;8.79;78.05;100262.41;5092258;28;20006;-66
2022/12/23 12:50:40;;;;;;;;;;;;;;;8.77;78.09;100262.50;5090762;28;19924;-68
2022/12/23 12:53:17;;;;;;;;;;;;;;;8.76;77.67;100268.69;5084963;28;19961;-66
2022/12/23 12:55:45;;;;;;;;;;;;;;;8.69;77.91;100270.81;5085067;28;19920;-66
2022/12/23 12:58:16;;;;;;;;;;;;;;;8.60;78.17;100291.47;5068094;28;21234;-67
2022/12/23 13:00:47;;;;;;;;;;;;;;;8.51;78.45;100293.69;5076730;28;19924;-67
2022/12/23 13:03:28;;;;;;;;;;;;;;;8.34;79.17;100299.84;5075149;28;20018;-69
2022/12/23 13:06:10;;;;;;;;;;;;;;;8.48;78.91;100299.13;5084630;28;20306;-65
2022/12/23 13:08:38;;;;;;;;;;;;;;;8.54;78.64;100303.16;5072444;28;19943;-64
2022/12/23 13:11:14;;;;;;;;;;;;;;;8.52;78.48;100295.41;5077025;28;19916;-62
2022/12/23 13:13:42;;;;;;;;;;;;;;;8.45;78.03;100301.88;5082323;28;19920;-64
2022/12/23 13:16:26;;;;;;;;;;;;;;;8.29;78.58;100303.66;5077956;28;20431;-65
2022/12/23 13:19:03;;;;;;;;;;;;;;;8.25;78.76;100297.72;5084788;28;19986;-63